Terminal Aerodrome Forecast
Issued by NWS Sterling, VA

Current Version | Previous Version | Graphics & Text | Print | Product List | Glossary On
Versions: 1 2 3 4 5 6 7 8 9 10 11 12 13 14 15
000
FTUS41 KLWX 120500
TAFMRB
TAF
KMRB 120534Z 1206/1306 VRB03KT P6SM FEW090
     FM120800 VRB03KT 5SM BR FEW090
     FM121200 18005KT P6SM FEW090
     FM121800 18008KT P6SM SCT050 BKN090=

USA.gov is the U.S. government's official web portal to all federal, state and local government web resources and services.